createdAt,value
2018-03-03T00:00:45.303Z,75.33
2018-03-03T00:03:13.383Z,73.79
2018-03-03T00:05:41.429Z,74.23
2018-03-03T00:08:09.561Z,74.43
2018-03-03T00:10:37.678Z,73.07
2018-03-03T00:13:06.194Z,72.10
2018-03-03T00:15:34.274Z,71.19
2018-03-03T00:18:02.421Z,72.43
2018-03-03T00:20:30.434Z,73.76
2018-03-03T00:22:58.515Z,74.55
2018-03-03T00:25:26.622Z,74.98
2018-03-03T00:27:54.557Z,74.11
2018-03-03T00:30:22.527Z,73.93
2018-03-03T00:32:50.482Z,74.14
2018-03-03T00:35:18.567Z,74.14
2018-03-03T00:37:46.640Z,73.34
2018-03-03T00:40:14.600Z,73.71
2018-03-03T00:42:42.686Z,74.15
2018-03-03T00:45:10.647Z,74.12
2018-03-03T00:47:38.727Z,74.79
2018-03-03T00:50:06.812Z,75.59
2018-03-03T00:52:34.896Z,75.91
2018-03-03T00:55:02.860Z,76.62
2018-03-03T00:57:30.775Z,77.11
2018-03-03T00:59:58.891Z,77.19
2018-03-03T01:02:26.977Z,77.00
2018-03-03T01:04:55.063Z,77.14
2018-03-03T01:07:23.022Z,77.25
2018-03-03T01:09:50.980Z,77.50
2018-03-03T01:14:51.824Z,77.68
2018-03-03T01:17:19.654Z,77.92
2018-03-03T01:19:47.621Z,78.33
2018-03-03T01:22:15.698Z,78.79
2018-03-03T01:24:43.665Z,78.95
2018-03-03T01:27:11.628Z,78.84
2018-03-03T01:29:39.584Z,78.84
2018-03-03T01:32:07.552Z,79.08
2018-03-03T01:34:35.509Z,79.44
2018-03-03T01:37:03.472Z,79.42
2018-03-03T01:39:31.316Z,79.56
2018-03-03T01:41:59.270Z,79.35
2018-03-03T01:44:27.235Z,79.93
2018-03-03T01:46:55.328Z,80.05
2018-03-03T01:49:23.399Z,80.36
2018-03-03T01:51:51.364Z,80.14
2018-03-03T01:54:19.200Z,80.30
2018-03-03T01:56:47.279Z,80.12
2018-03-03T01:59:15.248Z,80.08
2018-03-03T02:01:43.323Z,80.21
2018-03-03T02:04:11.165Z,80.47
2018-03-03T02:06:39.125Z,80.24
2018-03-03T02:09:07.092Z,79.36
2018-03-03T02:11:35.056Z,79.64
2018-03-03T02:14:02.899Z,79.65
2018-03-03T02:16:30.971Z,79.71
2018-03-03T02:18:59.063Z,79.76
2018-03-03T02:21:27.006Z,79.48
2018-03-03T02:26:28.934Z,79.66
2018-03-03T02:28:56.772Z,79.58
2018-03-03T02:31:24.625Z,79.60
2018-03-03T02:33:52.702Z,78.98
2018-03-03T02:36:20.664Z,79.11
2018-03-03T02:38:48.623Z,79.79
2018-03-03T02:41:16.458Z,80.51
2018-03-03T02:43:44.425Z,80.87
2018-03-03T02:46:12.270Z,80.88
2018-03-03T02:48:40.360Z,80.52
2018-03-03T02:51:08.190Z,80.42
2018-03-03T02:53:36.147Z,79.26
2018-03-03T02:56:04.235Z,79.33
2018-03-03T02:58:32.188Z,78.58
2018-03-03T03:01:00.717Z,79.00
2018-03-03T03:03:28.706Z,79.16
2018-03-03T03:05:56.677Z,79.53
2018-03-03T03:08:24.635Z,79.74
2018-03-03T03:10:52.483Z,79.43
2018-03-03T03:13:20.446Z,79.69
2018-03-03T03:15:48.516Z,79.38
2018-03-03T03:18:16.483Z,78.97
2018-03-03T03:20:44.558Z,79.74
2018-03-03T03:23:12.531Z,79.79
2018-03-03T03:25:40.444Z,80.30
2018-03-03T03:28:08.443Z,80.42
2018-03-03T03:30:36.292Z,80.49
2018-03-03T03:33:04.448Z,80.48
2018-03-03T03:35:32.443Z,80.16
2018-03-03T03:38:00.409Z,80.71
2018-03-03T03:40:28.492Z,80.90
2018-03-03T03:42:56.652Z,80.93
2018-03-03T03:45:24.653Z,80.58
2018-03-03T03:47:52.625Z,80.46
2018-03-03T03:50:20.575Z,79.68
2018-03-03T03:52:48.512Z,79.20
2018-03-03T03:55:16.513Z,78.38
2018-03-03T03:57:44.470Z,78.28
2018-03-03T04:00:12.780Z,79.14
2018-03-03T04:02:40.742Z,79.66
2018-03-03T04:05:08.703Z,79.70
2018-03-03T04:07:36.624Z,80.14
2018-03-03T04:10:04.630Z,80.04
2018-03-03T04:12:32.490Z,79.61
2018-03-03T04:15:00.555Z,78.82
2018-03-03T04:17:28.511Z,78.30
2018-03-03T04:19:56.593Z,78.72
2018-03-03T04:22:24.630Z,79.27
2018-03-03T04:24:52.750Z,79.28
2018-03-03T04:27:20.711Z,79.52
2018-03-03T04:29:48.675Z,79.55
2018-03-03T04:32:16.644Z,79.67
2018-03-03T04:34:44.714Z,80.10
2018-03-03T04:37:12.793Z,80.16
2018-03-03T04:39:40.660Z,80.29
2018-03-03T04:42:08.602Z,80.31
2018-03-03T04:44:36.560Z,80.42
2018-03-03T04:47:04.518Z,80.06
2018-03-03T04:49:32.490Z,79.82
2018-03-03T04:52:00.562Z,79.89
2018-03-03T04:54:28.648Z,79.90
2018-03-03T04:56:56.604Z,80.13
2018-03-03T04:59:26.124Z,79.88
2018-03-03T05:02:08.975Z,79.88
2018-03-03T05:04:42.573Z,79.83
2018-03-03T05:10:10.090Z,79.96
2018-03-03T05:12:40.243Z,80.00
2018-03-03T05:15:24.679Z,79.97
2018-03-03T05:21:04.887Z,79.92
2018-03-03T05:23:38.340Z,80.05
2018-03-03T05:26:11.618Z,80.05
2018-03-03T05:31:53.200Z,79.47
2018-03-03T05:37:31.472Z,78.20
2018-03-03T05:43:24.384Z,77.64
2018-03-03T05:45:57.536Z,77.43
2018-03-03T05:48:30.916Z,78.08
2018-03-03T05:51:04.057Z,77.04
2018-03-03T05:53:37.391Z,77.34
2018-03-03T05:56:06.867Z,77.44
2018-03-03T05:58:40.284Z,78.16
2018-03-03T06:01:10.307Z,77.39
2018-03-03T06:03:48.724Z,77.41
2018-03-03T06:06:19.280Z,77.60
2018-03-03T06:08:56.874Z,78.08
2018-03-03T06:11:24.533Z,78.25
2018-03-03T06:13:52.240Z,78.61
2018-03-03T06:16:19.857Z,78.57
2018-03-03T06:18:47.565Z,78.36
2018-03-03T06:21:15.204Z,78.65
2018-03-03T06:23:42.912Z,78.61
2018-03-03T06:26:10.528Z,79.08
2018-03-03T06:28:38.213Z,79.02
2018-03-03T06:31:05.823Z,78.33
2018-03-03T06:33:33.513Z,77.65
2018-03-03T06:36:01.226Z,77.44
2018-03-03T06:38:28.889Z,77.50
2018-03-03T06:40:56.519Z,76.73
2018-03-03T06:43:24.197Z,76.70
2018-03-03T06:45:51.837Z,76.52
2018-03-03T06:48:19.509Z,77.68
2018-03-03T06:50:47.171Z,77.99
2018-03-03T06:53:14.780Z,78.56
2018-03-03T06:55:42.440Z,79.33
2018-03-03T06:58:10.060Z,79.74
2018-03-03T07:00:37.763Z,80.04
2018-03-03T07:03:05.368Z,80.22
2018-03-03T07:05:33.032Z,80.46
2018-03-03T07:08:00.706Z,80.59
2018-03-03T07:10:28.359Z,80.53
2018-03-03T07:12:56.035Z,80.29
2018-03-03T07:15:23.736Z,80.55
2018-03-03T07:17:51.340Z,80.44
2018-03-03T07:20:18.989Z,80.03
2018-03-03T07:22:46.612Z,78.55
2018-03-03T07:25:14.288Z,77.77
2018-03-03T07:27:41.960Z,77.02
2018-03-03T07:30:09.703Z,76.47
2018-03-03T07:32:37.342Z,76.83
2018-03-03T07:35:05.034Z,77.01
2018-03-03T07:37:32.757Z,77.08
2018-03-03T07:40:00.539Z,76.91
2018-03-03T07:42:28.208Z,76.79
2018-03-03T07:44:55.885Z,76.92
2018-03-03T07:47:23.506Z,76.65
2018-03-03T07:49:51.218Z,76.57
2018-03-03T07:52:18.854Z,76.82
2018-03-03T07:54:46.687Z,76.75
2018-03-03T07:57:14.312Z,76.71
2018-03-03T07:59:41.947Z,76.39
2018-03-03T08:02:09.632Z,75.74
2018-03-03T08:04:37.339Z,74.92
2018-03-03T08:07:05.053Z,74.68
2018-03-03T08:09:32.736Z,73.76
2018-03-03T08:12:00.388Z,73.60
2018-03-03T08:14:28.026Z,73.48
2018-03-03T08:16:55.698Z,73.29
2018-03-03T08:19:23.338Z,73.39
2018-03-03T08:21:50.994Z,73.24
2018-03-03T08:24:18.622Z,71.44
2018-03-03T08:26:46.286Z,71.31
2018-03-03T08:29:13.940Z,70.26
2018-03-03T08:31:41.616Z,69.41
2018-03-03T08:34:09.438Z,70.08
2018-03-03T08:36:37.096Z,70.85
2018-03-03T08:39:04.788Z,71.25
2018-03-03T08:41:32.452Z,71.34
2018-03-03T08:44:00.064Z,71.39
2018-03-03T08:46:27.793Z,71.96
2018-03-03T08:48:55.470Z,71.89
2018-03-03T08:51:23.207Z,71.74
2018-03-03T08:53:50.965Z,71.18
2018-03-03T08:56:18.636Z,70.61
2018-03-03T08:58:46.318Z,70.44
2018-03-03T09:01:13.949Z,70.15
2018-03-03T09:03:41.613Z,70.43
2018-03-03T09:06:09.245Z,70.21
2018-03-03T09:08:37.082Z,70.25
2018-03-03T09:11:04.703Z,70.15
2018-03-03T09:13:32.392Z,69.63
2018-03-03T09:16:00.424Z,69.45
2018-03-03T09:18:28.190Z,69.55
2018-03-03T09:20:55.813Z,69.89
2018-03-03T09:23:23.721Z,70.36
2018-03-03T09:25:51.671Z,70.36
2018-03-03T09:28:19.857Z,69.99
2018-03-03T09:30:47.691Z,69.98
2018-03-03T09:33:15.424Z,69.63
2018-03-03T09:35:43.802Z,70.09
2018-03-03T09:38:11.509Z,69.38
2018-03-03T09:40:39.136Z,69.68
2018-03-03T09:43:06.808Z,68.89
2018-03-03T09:45:34.588Z,67.89
2018-03-03T09:48:02.584Z,68.89
2018-03-03T09:50:30.253Z,68.05
2018-03-03T09:52:57.871Z,68.34
2018-03-03T09:55:25.610Z,67.31
2018-03-03T09:57:53.272Z,66.86
2018-03-03T10:00:21.026Z,66.09
2018-03-03T10:02:48.671Z,66.23
2018-03-03T10:05:16.311Z,65.04
2018-03-03T10:07:43.954Z,65.10
2018-03-03T10:10:11.633Z,65.55
2018-03-03T10:12:39.261Z,66.16
2018-03-03T10:15:06.973Z,66.27
2018-03-03T10:17:34.584Z,65.28
2018-03-03T10:20:02.245Z,64.65
2018-03-03T10:22:30.259Z,66.10
2018-03-03T10:24:57.916Z,65.32
2018-03-03T10:27:25.565Z,69.06
2018-03-03T10:29:53.260Z,65.75
2018-03-03T10:32:21.543Z,62.46
2018-03-03T10:34:49.220Z,63.87
2018-03-03T10:37:16.891Z,64.63
2018-03-03T10:39:44.789Z,64.46
2018-03-03T10:42:12.661Z,66.42
2018-03-03T10:44:40.584Z,66.00
2018-03-03T10:47:08.569Z,67.20
2018-03-03T10:49:36.196Z,67.32
2018-03-03T10:52:03.884Z,67.10
2018-03-03T10:54:31.713Z,65.75
2018-03-03T10:56:59.498Z,66.14
2018-03-03T10:59:27.117Z,65.45
2018-03-03T11:01:54.792Z,64.59
2018-03-03T11:04:22.398Z,65.15
2018-03-03T11:06:50.047Z,64.62
2018-03-03T11:09:17.683Z,63.43
2018-03-03T11:11:45.383Z,63.56
2018-03-03T11:14:12.990Z,62.49
2018-03-03T11:16:40.640Z,63.68
2018-03-03T11:19:08.244Z,61.69
2018-03-03T11:21:35.897Z,60.16
2018-03-03T11:24:03.552Z,60.34
2018-03-03T11:26:31.207Z,60.24
2018-03-03T11:28:58.836Z,59.83
2018-03-03T11:31:26.503Z,62.54
2018-03-03T11:33:54.146Z,61.63
2018-03-03T11:36:21.789Z,61.28
2018-03-03T11:38:49.409Z,63.77
2018-03-03T11:41:17.088Z,61.57
2018-03-03T11:43:44.692Z,61.64
2018-03-03T11:46:12.357Z,61.76
2018-03-03T11:48:39.984Z,62.74
2018-03-03T11:51:07.591Z,62.22
2018-03-03T11:53:35.236Z,62.79
2018-03-03T11:56:02.862Z,63.05
2018-03-03T11:58:36.607Z,64.61
2018-03-03T12:01:04.210Z,63.95
2018-03-03T12:03:31.865Z,65.06
2018-03-03T12:05:59.472Z,65.83
2018-03-03T12:08:27.238Z,66.75
2018-03-03T12:10:54.868Z,66.59
2018-03-03T12:13:22.521Z,67.63
2018-03-03T12:15:50.133Z,68.11
2018-03-03T12:18:17.808Z,68.66
2018-03-03T12:20:45.427Z,68.01
2018-03-03T12:23:13.076Z,67.59
2018-03-03T12:25:40.698Z,67.69
2018-03-03T12:28:08.392Z,66.62
2018-03-03T12:30:36.005Z,67.32
2018-03-03T12:33:03.660Z,67.73
2018-03-03T12:35:31.313Z,67.11
2018-03-03T12:37:58.983Z,65.23
2018-03-03T12:40:26.610Z,65.00
2018-03-03T12:42:54.304Z,65.22
2018-03-03T12:45:21.918Z,64.80
2018-03-03T12:47:49.525Z,66.02
2018-03-03T12:50:17.180Z,68.53
2018-03-03T12:52:44.828Z,68.25
2018-03-03T12:55:12.479Z,68.30
2018-03-03T12:57:40.100Z,69.29
2018-03-03T13:00:07.757Z,68.79
2018-03-03T13:02:35.371Z,68.24
2018-03-03T13:05:03.109Z,68.15
2018-03-03T13:07:30.734Z,69.62
2018-03-03T13:09:58.382Z,68.74
2018-03-03T13:12:26.000Z,67.38
2018-03-03T13:14:53.696Z,67.26
2018-03-03T13:17:21.322Z,66.73
2018-03-03T13:19:48.981Z,67.64
2018-03-03T13:22:16.612Z,67.17
2018-03-03T13:24:44.271Z,67.99
2018-03-03T13:27:11.908Z,67.03
2018-03-03T13:29:45.369Z,67.56
2018-03-03T13:32:12.989Z,68.38
2018-03-03T13:34:40.668Z,68.03
2018-03-03T13:37:08.288Z,68.57
2018-03-03T13:39:35.972Z,68.18
2018-03-03T13:42:03.604Z,67.60
2018-03-03T13:44:31.228Z,67.55
2018-03-03T13:46:58.885Z,67.89
2018-03-03T13:49:26.499Z,66.86
2018-03-03T13:51:54.176Z,65.93
2018-03-03T13:54:21.798Z,65.81
2018-03-03T13:56:49.480Z,63.98
2018-03-03T13:59:17.099Z,64.99
2018-03-03T14:01:44.746Z,64.65
2018-03-03T14:04:12.405Z,66.24
2018-03-03T14:06:40.074Z,66.04
2018-03-03T14:09:07.728Z,65.03
2018-03-03T14:11:35.389Z,66.15
2018-03-03T14:14:02.992Z,65.43
2018-03-03T14:16:30.657Z,64.31
2018-03-03T14:18:58.289Z,64.01
2018-03-03T14:21:25.943Z,65.99
2018-03-03T14:23:53.624Z,65.24
2018-03-03T14:26:21.268Z,65.81
2018-03-03T14:28:48.872Z,65.70
2018-03-03T14:31:16.546Z,66.45
2018-03-03T14:33:44.148Z,66.68
2018-03-03T14:36:11.770Z,66.45
2018-03-03T14:38:39.452Z,66.78
2018-03-03T14:41:07.126Z,66.47
2018-03-03T14:43:34.825Z,65.32
2018-03-03T14:46:02.452Z,65.31
2018-03-03T14:48:30.106Z,66.41
2018-03-03T14:50:57.736Z,65.89
2018-03-03T14:53:25.401Z,66.34
2018-03-03T14:55:53.047Z,66.62
2018-03-03T14:58:20.709Z,67.26
2018-03-03T15:00:48.317Z,66.62
2018-03-03T15:03:16.047Z,66.91
2018-03-03T15:05:43.711Z,66.18
2018-03-03T15:08:11.367Z,66.72
2018-03-03T15:10:38.991Z,67.40
2018-03-03T15:13:06.652Z,66.41
2018-03-03T15:15:34.405Z,66.54
2018-03-03T15:18:02.061Z,66.42
2018-03-03T15:20:29.669Z,65.84
2018-03-03T15:22:57.340Z,65.91
2018-03-03T15:25:25.009Z,66.27
2018-03-03T15:27:52.656Z,65.40
2018-03-03T15:30:20.293Z,65.44
2018-03-03T15:32:47.943Z,66.04
2018-03-03T15:35:15.618Z,66.39
2018-03-03T15:37:43.272Z,65.82
2018-03-03T15:40:10.941Z,65.13
2018-03-03T15:42:38.608Z,65.90
2018-03-03T15:45:06.309Z,65.83
2018-03-03T15:47:33.946Z,66.38
2018-03-03T15:50:01.596Z,66.10
2018-03-03T15:52:29.240Z,66.48
2018-03-03T15:54:56.933Z,66.43
2018-03-03T15:57:24.575Z,66.27
2018-03-03T15:59:52.230Z,66.49
2018-03-03T16:02:19.885Z,66.91
2018-03-03T16:04:47.616Z,67.27
2018-03-03T16:07:15.253Z,67.73
2018-03-03T16:09:42.908Z,67.05
2018-03-03T16:12:10.575Z,67.50
2018-03-03T16:14:38.280Z,67.40
2018-03-03T16:17:07.335Z,67.10
2018-03-03T16:19:33.576Z,66.15
2018-03-03T16:22:01.196Z,65.72
2018-03-03T16:24:28.864Z,65.80
2018-03-03T16:26:56.474Z,66.18
2018-03-03T16:29:24.117Z,65.13
2018-03-03T16:31:51.721Z,64.67
2018-03-03T16:34:19.396Z,65.45
2018-03-03T16:36:47.008Z,65.10
2018-03-03T16:39:14.649Z,64.71
2018-03-03T16:41:42.339Z,64.68
2018-03-03T16:44:09.971Z,64.46
2018-03-03T16:46:37.664Z,64.42
2018-03-03T16:49:05.333Z,64.11
2018-03-03T16:51:32.993Z,63.58
2018-03-03T16:54:00.633Z,63.28
2018-03-03T16:56:28.392Z,63.18
2018-03-03T16:58:56.028Z,63.07
2018-03-03T17:01:23.692Z,62.42
2018-03-03T17:03:51.308Z,62.02
2018-03-03T17:06:18.957Z,62.04
2018-03-03T17:08:46.586Z,62.00
2018-03-03T17:11:14.244Z,62.13
2018-03-03T17:13:41.892Z,62.11
2018-03-03T17:16:09.551Z,62.06
2018-03-03T17:18:37.181Z,62.04
2018-03-03T17:21:04.896Z,61.95
2018-03-03T17:23:32.516Z,62.48
2018-03-03T17:26:00.182Z,62.63
2018-03-03T17:28:27.921Z,62.49
2018-03-03T17:30:55.572Z,62.63
2018-03-03T17:33:23.187Z,62.82
2018-03-03T17:35:50.907Z,63.21
2018-03-03T17:38:18.540Z,62.84
2018-03-03T17:40:46.140Z,62.87
2018-03-03T17:43:13.806Z,62.30
2018-03-03T17:45:41.452Z,62.47
2018-03-03T17:48:09.105Z,62.71
2018-03-03T17:50:36.719Z,62.85
2018-03-03T17:53:04.364Z,62.02
2018-03-03T17:55:31.980Z,61.70
2018-03-03T17:57:59.635Z,61.58
2018-03-03T18:00:27.325Z,62.07
2018-03-03T18:02:54.978Z,62.25
2018-03-03T18:05:22.601Z,61.98
2018-03-03T18:07:50.255Z,61.61
2018-03-03T18:10:17.878Z,61.87
2018-03-03T18:12:45.531Z,61.20
2018-03-03T18:15:13.162Z,61.62
2018-03-03T18:17:40.829Z,61.91
2018-03-03T18:20:08.438Z,62.06
2018-03-03T18:22:36.113Z,62.14
2018-03-03T18:25:03.984Z,61.69
2018-03-03T18:27:31.660Z,61.49
2018-03-03T18:29:59.329Z,61.58
2018-03-03T18:35:00.773Z,61.46
2018-03-03T18:37:28.443Z,61.26
2018-03-03T18:39:56.086Z,61.53
2018-03-03T18:42:23.803Z,61.00
2018-03-03T18:44:51.446Z,61.28
2018-03-03T18:47:19.065Z,60.90
2018-03-03T18:49:46.748Z,60.80
2018-03-03T18:52:14.384Z,60.76
2018-03-03T18:54:42.039Z,60.78
2018-03-03T18:57:09.689Z,60.48
2018-03-03T18:59:37.343Z,60.82
2018-03-03T19:02:04.948Z,60.26
2018-03-03T19:04:32.622Z,60.66
2018-03-03T19:07:00.238Z,60.97
2018-03-03T19:09:27.912Z,61.97
2018-03-03T19:11:55.517Z,62.34
2018-03-03T19:14:23.178Z,63.10
2018-03-03T19:16:50.861Z,63.26
2018-03-03T19:19:18.542Z,63.19
2018-03-03T19:21:46.164Z,64.29
2018-03-03T19:24:13.884Z,64.44
2018-03-03T19:26:41.549Z,64.86
2018-03-03T19:29:09.224Z,64.94
2018-03-03T19:31:36.861Z,65.06
2018-03-03T19:34:04.506Z,65.25
2018-03-03T19:36:32.138Z,64.50
2018-03-03T19:38:59.828Z,64.93
2018-03-03T19:41:27.436Z,65.33
2018-03-03T19:43:55.101Z,64.86
2018-03-03T19:46:22.709Z,64.56
2018-03-03T19:48:50.373Z,65.67
2018-03-03T19:51:18.017Z,66.32
2018-03-03T19:53:45.676Z,66.99
2018-03-03T19:56:13.301Z,66.30
2018-03-03T19:58:40.947Z,66.27
2018-03-03T20:01:08.558Z,66.86
2018-03-03T20:03:36.236Z,67.38
2018-03-03T20:06:03.856Z,67.20
2018-03-03T20:08:31.526Z,68.46
2018-03-03T20:10:59.163Z,68.89
2018-03-03T20:13:26.808Z,68.69
2018-03-03T20:15:54.508Z,68.29
2018-03-03T20:18:22.138Z,68.42
2018-03-03T20:20:49.783Z,68.82
2018-03-03T20:23:17.383Z,68.54
2018-03-03T20:25:45.092Z,68.91
2018-03-03T20:28:12.730Z,69.44
2018-03-03T20:30:40.442Z,69.93
2018-03-03T20:33:08.079Z,70.36
2018-03-03T20:35:35.731Z,70.86
2018-03-03T20:38:03.418Z,70.69
2018-03-03T20:40:31.081Z,71.15
2018-03-03T20:42:58.712Z,71.49
2018-03-03T20:45:26.368Z,71.31
2018-03-03T20:47:53.992Z,70.77
2018-03-03T20:50:21.660Z,70.88
2018-03-03T20:52:49.297Z,70.84
2018-03-03T20:55:16.984Z,70.91
2018-03-03T20:57:44.640Z,70.85
2018-03-03T21:00:12.324Z,71.42
2018-03-03T21:02:39.941Z,71.28
2018-03-03T21:05:07.597Z,72.02
2018-03-03T21:07:35.220Z,72.67
2018-03-03T21:10:02.895Z,72.95
2018-03-03T21:12:46.173Z,73.02
2018-03-03T21:15:13.848Z,72.97
2018-03-03T21:17:41.452Z,73.14
2018-03-03T21:20:09.101Z,73.22
2018-03-03T21:22:36.748Z,72.25
2018-03-03T21:25:04.733Z,72.77
2018-03-03T21:27:32.368Z,72.61
2018-03-03T21:29:59.978Z,72.47
2018-03-03T21:32:27.632Z,72.61
2018-03-03T21:34:55.262Z,72.94
2018-03-03T21:37:22.926Z,72.54
2018-03-03T21:39:50.554Z,73.08
2018-03-03T21:42:18.200Z,73.64
2018-03-03T21:44:45.841Z,74.51
2018-03-03T21:47:13.502Z,74.50
2018-03-03T21:49:41.137Z,74.98
2018-03-03T21:52:08.789Z,75.85
2018-03-03T21:54:36.423Z,75.70
2018-03-03T21:57:04.080Z,74.28
2018-03-03T21:59:31.702Z,74.23
2018-03-03T22:01:59.409Z,74.19
2018-03-03T22:04:27.028Z,74.50
2018-03-03T22:06:54.691Z,75.02
2018-03-03T22:09:22.295Z,75.91
2018-03-03T22:11:49.966Z,75.70
2018-03-03T22:14:17.580Z,76.73
2018-03-03T22:16:45.203Z,76.66
2018-03-03T22:19:12.868Z,75.88
2018-03-03T22:21:40.503Z,75.90
2018-03-03T22:24:08.161Z,76.55
2018-03-03T22:26:35.797Z,76.15
2018-03-03T22:29:03.460Z,76.03
2018-03-03T22:31:31.069Z,76.01
2018-03-03T22:33:58.753Z,76.58
2018-03-03T22:36:26.355Z,77.67
2018-03-03T22:38:54.016Z,77.64
2018-03-03T22:41:21.673Z,77.29
2018-03-03T22:43:49.345Z,77.53
2018-03-03T22:46:16.983Z,77.50
2018-03-03T22:48:44.664Z,77.64
2018-03-03T22:51:12.273Z,76.56
2018-03-03T22:53:39.943Z,74.43
2018-03-03T22:56:07.556Z,75.22
2018-03-03T22:59:10.769Z,75.08
2018-03-03T23:01:38.383Z,75.33
2018-03-03T23:04:06.061Z,75.94
2018-03-03T23:09:15.701Z,76.29
2018-03-03T23:11:43.390Z,76.45
2018-03-03T23:15:18.608Z,75.49
2018-03-03T23:17:46.212Z,75.71
2018-03-03T23:20:13.892Z,75.21
2018-03-03T23:22:41.526Z,74.41
2018-03-03T23:25:09.700Z,74.45
2018-03-03T23:27:37.359Z,74.78
2018-03-03T23:30:05.028Z,74.90
2018-03-03T23:32:32.653Z,74.51
2018-03-03T23:35:00.557Z,73.96
2018-03-03T23:37:28.168Z,73.59
2018-03-03T23:39:55.824Z,73.72
2018-03-03T23:42:23.477Z,73.99
2018-03-03T23:44:51.138Z,74.57
2018-03-03T23:47:18.759Z,74.49
2018-03-03T23:49:46.417Z,75.28
2018-03-03T23:52:14.065Z,75.39
2018-03-03T23:54:41.712Z,75.63
2018-03-03T23:57:09.327Z,75.97
2018-03-03T23:59:36.972Z,76.64
